Time;durP1;ratioP1;P1;durP2;ratioP2;P2;SDS_P1;SDS_P2;PMS_P1;PMS_P2;Temp;Humidity;BMP_temperature;BMP_pressure;BME280_temperature;BME280_humidity;BME280_pressure;Samples;Min_cycle;Max_cycle;Signal;HPM_P1;HPM_P2
2021/12/13 00:00:19;;;;;;;18.10;14.40;;;8.80;99.90;;;;;;5000288;28;20244;-64
2021/12/13 00:02:53;;;;;;;19.80;15.00;;;8.90;99.90;;;;;;5031443;28;20294;-64
2021/12/13 00:05:26;;;;;;;17.80;13.73;;;8.90;99.90;;;;;;5016822;28;20427;-64
2021/12/13 00:07:58;;;;;;;18.65;13.52;;;8.90;99.90;;;;;;5012976;28;21161;-64
2021/12/13 00:10:35;;;;;;;18.35;13.73;;;8.90;99.90;;;;;;5013243;28;20240;-63
2021/12/13 00:13:10;;;;;;;19.17;14.40;;;8.90;99.90;;;;;;5012840;28;20217;-63
2021/12/13 00:15:45;;;;;;;17.88;13.80;;;9.00;99.90;;;;;;5015829;28;20225;-63
2021/12/13 00:18:18;;;;;;;19.40;14.32;;;9.00;99.90;;;;;;5023565;28;20968;-63
2021/12/13 00:20:49;;;;;;;19.33;14.68;;;9.00;99.90;;;;;;5028977;28;20221;-64
2021/12/13 00:23:25;;;;;;;18.10;14.25;;;9.00;99.90;;;;;;5016479;28;20227;-63
2021/12/13 00:25:56;;;;;;;18.85;14.45;;;9.00;99.90;;;;;;5021695;28;20225;-63
2021/12/13 00:28:27;;;;;;;18.35;14.85;;;9.00;99.90;;;;;;5032666;28;20235;-63
2021/12/13 00:31:02;;;;;;;22.02;14.60;;;9.10;99.90;;;;;;5019513;28;20235;-63
2021/12/13 00:33:38;;;;;;;21.20;15.82;;;9.10;99.90;;;;;;5032755;28;20227;-63
2021/12/13 00:36:10;;;;;;;16.90;14.13;;;9.00;99.90;;;;;;5032274;28;20229;-63
2021/12/13 00:38:41;;;;;;;19.10;14.85;;;9.00;99.90;;;;;;5032616;28;20578;-64
2021/12/13 00:41:12;;;;;;;18.90;15.10;;;9.10;99.90;;;;;;5032329;28;20243;-63
2021/12/13 00:43:49;;;;;;;17.10;13.70;;;9.00;99.90;;;;;;5032334;28;20547;-63
2021/12/13 00:46:18;;;;;;;18.35;14.40;;;9.10;99.90;;;;;;5031967;28;20249;-63
2021/12/13 00:48:50;;;;;;;18.48;14.32;;;9.10;99.90;;;;;;5034423;28;20221;-64
2021/12/13 00:51:25;;;;;;;20.75;15.50;;;9.10;99.90;;;;;;5032005;28;20229;-64
2021/12/13 00:53:54;;;;;;;17.75;13.68;;;9.10;99.90;;;;;;5020806;28;20316;-64
2021/12/13 00:56:46;;;;;;;19.48;15.35;;;9.10;99.90;;;;;;5015715;28;20227;-64
2021/12/13 00:59:21;;;;;;;18.75;14.82;;;9.10;99.90;;;;;;5030394;28;20232;-64
2021/12/13 01:01:54;;;;;;;19.50;14.45;;;9.10;99.90;;;;;;5019310;28;20231;-64
2021/12/13 01:04:23;;;;;;;18.50;15.32;;;9.20;99.90;;;;;;5024446;28;20304;-65
2021/12/13 01:07:35;;;;;;;19.45;14.93;;;9.20;99.90;;;;;;5032547;28;20236;-64
2021/12/13 01:11:11;;;;;;;19.38;16.30;;;9.20;99.90;;;;;;4992794;28;20721;-64
2021/12/13 01:13:54;;;;;;;19.38;15.20;;;9.20;99.90;;;;;;5026606;28;20691;-64
2021/12/13 01:16:47;;;;;;;19.98;15.80;;;9.10;99.90;;;;;;5031667;28;20221;-64
2021/12/13 01:19:36;;;;;;;19.00;14.02;;;9.20;99.90;;;;;;5032214;28;20221;-64
2021/12/13 01:25:18;;;;;;;19.48;15.68;;;9.10;99.90;;;;;;5031899;28;20519;-65
2021/12/13 01:27:49;;;;;;;17.90;15.13;;;9.10;99.90;;;;;;5019367;28;20568;-63
2021/12/13 01:30:23;;;;;;;17.67;14.85;;;9.10;99.90;;;;;;5031506;28;20226;-63
2021/12/13 01:32:55;;;;;;;18.95;14.80;;;9.10;99.90;;;;;;5032128;28;20233;-63
2021/12/13 01:35:25;;;;;;;18.33;15.73;;;9.10;99.90;;;;;;5031514;28;20225;-63
2021/12/13 01:38:03;;;;;;;19.15;15.00;;;9.20;99.90;;;;;;5032132;28;20244;-64
2021/12/13 01:40:34;;;;;;;18.50;13.93;;;9.20;99.90;;;;;;5013476;28;20240;-64
2021/12/13 01:43:06;;;;;;;18.50;14.63;;;9.20;99.90;;;;;;5019957;28;20684;-64
2021/12/13 01:45:37;;;;;;;17.90;15.70;;;9.20;99.90;;;;;;5011853;28;20226;-64
2021/12/13 01:48:06;;;;;;;19.67;14.27;;;9.10;99.90;;;;;;5021576;28;20618;-64
2021/12/13 01:50:46;;;;;;;19.58;14.57;;;9.20;99.90;;;;;;5015246;28;20236;-64
2021/12/13 01:53:14;;;;;;;21.27;15.65;;;9.20;99.90;;;;;;5022656;28;20249;-64
2021/12/13 01:55:46;;;;;;;20.05;16.20;;;9.20;99.90;;;;;;5015511;28;20596;-64
2021/12/13 01:58:35;;;;;;;20.48;15.48;;;9.30;99.90;;;;;;5027302;28;20279;-65
2021/12/13 02:01:12;;;;;;;20.52;14.98;;;9.30;99.90;;;;;;5034695;28;20467;-63
2021/12/13 02:03:54;;;;;;;17.85;15.70;;;9.30;99.90;;;;;;5035043;28;20252;-64
2021/12/13 02:06:29;;;;;;;22.35;16.80;;;9.20;99.90;;;;;;5032686;28;20737;-63
2021/12/13 02:08:59;;;;;;;23.40;16.30;;;9.30;99.90;;;;;;5035383;28;20227;-64
2021/12/13 02:11:29;;;;;;;19.83;16.52;;;9.30;99.90;;;;;;5034591;28;20233;-63
2021/12/13 02:14:11;;;;;;;21.35;15.70;;;9.30;99.90;;;;;;5035055;28;20232;-63
2021/12/13 02:16:59;;;;;;;21.92;15.55;;;9.30;99.90;;;;;;5030980;28;20232;-63
2021/12/13 02:19:32;;;;;;;21.83;17.00;;;9.30;99.90;;;;;;5014570;28;20248;-62
2021/12/13 02:22:21;;;;;;;20.70;15.30;;;9.30;99.90;;;;;;5021242;28;20229;-63
2021/12/13 02:24:50;;;;;;;19.77;15.82;;;9.30;99.90;;;;;;5032635;28;20214;-63
2021/12/13 02:27:22;;;;;;;22.10;15.32;;;9.30;99.90;;;;;;5034938;28;20225;-63
2021/12/13 02:29:50;;;;;;;23.85;17.10;;;9.30;99.90;;;;;;5015110;28;20799;-63
2021/12/13 02:32:17;;;;;;;23.35;16.08;;;9.30;99.90;;;;;;5030369;28;20631;-63
2021/12/13 02:34:46;;;;;;;21.40;16.00;;;9.40;99.90;;;;;;5034388;28;20231;-63
2021/12/13 02:37:14;;;;;;;21.52;15.18;;;9.30;99.90;;;;;;5034802;28;20283;-64
2021/12/13 02:39:45;;;;;;;22.85;16.13;;;9.40;99.90;;;;;;5034291;28;20233;-63
2021/12/13 02:42:16;;;;;;;21.70;16.25;;;9.40;99.90;;;;;;5021931;28;20229;-63
2021/12/13 02:44:46;;;;;;;23.63;16.35;;;9.40;99.90;;;;;;5034258;28;20236;-63
2021/12/13 02:47:16;;;;;;;26.20;17.13;;;9.40;99.90;;;;;;5021307;28;20312;-63
2021/12/13 02:49:44;;;;;;;23.35;17.15;;;9.40;99.90;;;;;;5035949;28;20234;-63
2021/12/13 02:52:14;;;;;;;26.92;17.75;;;9.40;99.90;;;;;;5034460;28;20579;-64
2021/12/13 02:54:44;;;;;;;23.45;16.10;;;9.40;99.90;;;;;;5034055;28;20233;-63
2021/12/13 02:57:16;;;;;;;27.05;18.70;;;9.40;99.90;;;;;;5037675;28;20679;-63
2021/12/13 02:59:45;;;;;;;29.48;17.35;;;9.40;99.90;;;;;;5017557;28;20703;-63
2021/12/13 03:02:17;;;;;;;23.70;17.42;;;9.50;99.90;;;;;;5023981;28;20226;-63
2021/12/13 03:04:44;;;;;;;22.67;15.88;;;9.40;99.90;;;;;;5028074;28;20218;-63
2021/12/13 03:07:14;;;;;;;22.30;16.13;;;9.40;99.90;;;;;;5034477;28;20235;-63
2021/12/13 03:09:43;;;;;;;26.02;17.63;;;9.40;99.90;;;;;;5033595;28;20312;-62
2021/12/13 03:12:16;;;;;;;24.48;18.20;;;9.50;99.90;;;;;;5033955;28;20244;-63
2021/12/13 03:14:46;;;;;;;23.05;16.17;;;9.50;99.90;;;;;;5020574;28;20579;-63
2021/12/13 03:17:19;;;;;;;20.45;14.82;;;9.50;99.90;;;;;;5033820;28;20227;-63
2021/12/13 03:20:02;;;;;;;21.80;15.65;;;9.40;99.90;;;;;;5033388;28;20229;-63
2021/12/13 03:23:11;;;;;;;20.27;15.70;;;9.50;99.90;;;;;;5033582;28;20217;-63
2021/12/13 03:25:48;;;;;;;19.85;15.13;;;9.40;99.90;;;;;;5004961;28;20235;-64
2021/12/13 03:28:34;;;;;;;20.00;13.40;;;9.50;99.90;;;;;;5033729;28;20235;-64
2021/12/13 03:31:06;;;;;;;21.45;14.20;;;9.40;99.90;;;;;;5001942;28;20237;-64
2021/12/13 03:33:37;;;;;;;23.80;16.27;;;9.40;99.90;;;;;;5019503;28;20566;-64
2021/12/13 03:36:09;;;;;;;19.95;15.38;;;9.50;99.90;;;;;;5021999;28;20643;-64
2021/12/13 03:38:39;;;;;;;21.52;14.80;;;9.50;99.90;;;;;;5013833;28;20233;-64
2021/12/13 03:41:09;;;;;;;21.48;15.65;;;9.50;99.90;;;;;;5021925;28;20603;-64
2021/12/13 03:43:40;;;;;;;22.88;15.68;;;9.50;99.90;;;;;;5013720;28;20253;-64
2021/12/13 03:46:12;;;;;;;18.33;14.93;;;9.50;99.90;;;;;;5017397;28;20226;-64
2021/12/13 03:48:40;;;;;;;20.90;15.00;;;9.50;99.90;;;;;;5035332;28;20733;-63
2021/12/13 03:51:12;;;;;;;21.65;15.10;;;9.50;99.90;;;;;;5032733;28;20229;-64
2021/12/13 03:53:40;;;;;;;21.10;16.10;;;9.50;99.90;;;;;;5033416;28;20222;-64
2021/12/13 03:56:10;;;;;;;33.30;23.08;;;9.50;99.90;;;;;;5032565;28;20226;-64
2021/12/13 03:58:46;;;;;;;28.25;20.25;;;9.50;99.90;;;;;;5034131;28;20221;-63
2021/12/13 04:01:16;;;;;;;24.45;17.23;;;9.50;99.90;;;;;;5032779;28;21103;-64
2021/12/13 04:03:47;;;;;;;27.10;16.75;;;9.50;99.90;;;;;;5032462;28;20225;-64
2021/12/13 04:06:15;;;;;;;21.08;14.70;;;9.50;99.90;;;;;;5029591;28;20661;-63
2021/12/13 04:08:44;;;;;;;17.90;12.95;;;9.50;99.90;;;;;;5032964;28;20308;-63
2021/12/13 04:11:12;;;;;;;23.13;14.85;;;9.50;99.90;;;;;;5032509;28;20236;-64
2021/12/13 04:13:45;;;;;;;20.52;14.57;;;9.50;99.90;;;;;;5033049;28;20225;-64
2021/12/13 04:16:28;;;;;;;21.00;13.52;;;9.40;99.90;;;;;;5032276;28;20228;-64
2021/12/13 04:19:09;;;;;;;19.17;13.82;;;9.50;99.90;;;;;;5032379;28;20244;-64
2021/12/13 04:21:46;;;;;;;28.45;15.48;;;9.40;99.90;;;;;;5032592;28;20683;-63
2021/12/13 04:24:17;;;;;;;18.40;13.18;;;9.40;99.90;;;;;;5032536;28;20574;-64
2021/12/13 04:26:48;;;;;;;18.77;13.95;;;9.40;99.90;;;;;;5015754;28;20218;-64
2021/12/13 04:29:22;;;;;;;19.58;13.77;;;9.40;99.90;;;;;;5010214;28;20651;-64
2021/12/13 04:31:50;;;;;;;20.52;12.82;;;9.40;99.90;;;;;;5012582;28;20274;-64
2021/12/13 04:34:17;;;;;;;19.60;12.90;;;9.40;99.90;;;;;;5017570;28;20217;-64
2021/12/13 04:36:48;;;;;;;20.88;13.82;;;9.40;99.90;;;;;;5032845;28;20572;-63
2021/12/13 04:39:19;;;;;;;16.70;12.68;;;9.50;99.90;;;;;;5032257;28;20222;-64
2021/12/13 04:41:50;;;;;;;19.15;13.57;;;9.50;99.90;;;;;;5032895;28;20268;-64
2021/12/13 04:44:27;;;;;;;22.23;14.27;;;9.50;99.90;;;;;;5032591;28;20300;-64
2021/12/13 04:46:56;;;;;;;17.38;12.82;;;9.40;99.90;;;;;;5032192;28;20236;-63
2021/12/13 04:49:26;;;;;;;19.77;13.00;;;9.50;99.90;;;;;;5032459;28;20565;-64
2021/12/13 04:51:56;;;;;;;22.67;13.52;;;9.50;99.90;;;;;;5032596;28;20231;-63
2021/12/13 04:54:25;;;;;;;18.48;12.80;;;9.50;99.90;;;;;;5032469;28;21301;-63
2021/12/13 04:56:54;;;;;;;16.15;11.45;;;9.50;99.90;;;;;;5032445;28;20680;-64
2021/12/13 04:59:23;;;;;;;22.35;12.95;;;9.50;99.90;;;;;;5032177;28;20668;-64
2021/12/13 05:01:54;;;;;;;17.52;11.63;;;9.50;99.90;;;;;;5032499;28;20236;-63
2021/12/13 05:04:22;;;;;;;21.08;13.68;;;9.50;99.90;;;;;;5032016;28;20225;-64
2021/12/13 05:06:52;;;;;;;18.48;12.07;;;9.50;99.90;;;;;;5032749;28;20232;-64
2021/12/13 05:09:21;;;;;;;18.55;12.13;;;9.60;99.90;;;;;;5031871;28;20322;-64
2021/12/13 05:11:53;;;;;;;20.67;13.90;;;9.50;99.90;;;;;;5032401;28;20243;-64
2021/12/13 05:14:32;;;;;;;19.98;12.57;;;9.50;99.90;;;;;;5032114;28;20221;-63
2021/12/13 05:17:08;;;;;;;21.58;12.40;;;9.50;99.90;;;;;;5032472;28;20231;-64
2021/12/13 05:19:40;;;;;;;21.85;12.77;;;9.60;99.90;;;;;;5032715;28;20566;-64
2021/12/13 05:22:09;;;;;;;17.90;12.15;;;9.60;99.90;;;;;;5032200;28;21286;-64
2021/12/13 05:24:44;;;;;;;30.08;14.70;;;9.60;99.90;;;;;;5032415;28;20228;-64
2021/12/13 05:27:14;;;;;;;22.13;13.32;;;9.60;99.90;;;;;;5031951;28;20220;-64
2021/12/13 05:29:45;;;;;;;21.23;12.05;;;9.60;99.90;;;;;;5034449;28;20235;-64
2021/12/13 05:32:16;;;;;;;20.10;13.02;;;9.40;99.90;;;;;;5035964;28;20991;-64
2021/12/13 05:34:51;;;;;;;22.10;14.48;;;9.50;99.90;;;;;;5036094;28;20222;-64
2021/12/13 05:37:19;;;;;;;20.95;13.13;;;9.50;99.90;;;;;;5035820;28;21298;-64
2021/12/13 05:39:59;;;;;;;21.13;12.40;;;9.50;99.90;;;;;;5035976;28;20570;-64
2021/12/13 05:42:37;;;;;;;26.70;14.95;;;9.50;99.90;;;;;;5035770;28;20224;-64
2021/12/13 05:45:07;;;;;;;22.67;12.23;;;9.50;99.90;;;;;;5035527;28;20221;-64
2021/12/13 05:47:35;;;;;;;18.27;12.32;;;9.50;99.90;;;;;;5035861;28;20347;-64
2021/12/13 05:50:05;;;;;;;25.45;13.18;;;9.50;99.90;;;;;;5035352;28;20225;-63
2021/12/13 05:52:35;;;;;;;23.30;12.50;;;9.50;99.90;;;;;;5035714;28;20225;-64
2021/12/13 05:55:07;;;;;;;22.70;13.23;;;9.60;99.90;;;;;;5035275;28;20311;-64
2021/12/13 05:57:37;;;;;;;27.25;13.95;;;9.60;99.90;;;;;;5035803;28;20217;-63
2021/12/13 06:00:11;;;;;;;22.58;12.45;;;9.60;99.90;;;;;;5035174;28;20222;-64
2021/12/13 06:02:59;;;;;;;24.35;13.35;;;9.60;99.90;;;;;;5035712;28;20286;-64
2021/12/13 06:05:28;;;;;;;24.77;13.30;;;9.60;99.90;;;;;;5035054;28;20679;-64
2021/12/13 06:07:57;;;;;;;23.10;11.55;;;9.60;99.90;;;;;;5035606;28;20268;-64
2021/12/13 06:10:29;;;;;;;23.15;12.88;;;9.60;99.90;;;;;;5034864;28;20233;-64
2021/12/13 06:12:58;;;;;;;25.30;14.35;;;9.60;99.90;;;;;;5035257;28;20680;-64
2021/12/13 06:15:30;;;;;;;21.23;12.07;;;9.60;99.90;;;;;;5035040;28;20683;-64
2021/12/13 06:18:08;;;;;;;25.65;13.38;;;9.60;99.90;;;;;;5035447;28;20231;-64
2021/12/13 06:20:41;;;;;;;23.67;12.38;;;9.60;99.90;;;;;;5034937;28;20221;-63
2021/12/13 06:23:12;;;;;;;22.63;12.70;;;9.60;99.90;;;;;;5035123;28;20221;-64
2021/12/13 06:25:41;;;;;;;30.15;14.93;;;9.60;99.90;;;;;;5035049;28;20604;-64
2021/12/13 06:28:17;;;;;;;25.77;14.68;;;9.60;99.90;;;;;;5035204;28;20221;-64
2021/12/13 06:30:54;;;;;;;23.10;12.25;;;9.60;99.90;;;;;;5034824;28;20638;-64
2021/12/13 06:33:21;;;;;;;20.52;12.20;;;9.60;99.90;;;;;;5034671;28;20240;-64
2021/12/13 06:35:50;;;;;;;25.08;12.43;;;9.60;99.90;;;;;;5034979;28;20699;-63
2021/12/13 06:38:47;;;;;;;25.17;12.20;;;9.70;99.90;;;;;;5034877;28;20675;-64
2021/12/13 06:41:32;;;;;;;29.58;16.30;;;9.70;99.90;;;;;;5034609;28;20268;-64
2021/12/13 06:44:01;;;;;;;28.30;11.73;;;9.70;99.90;;;;;;5034990;28;20571;-64
2021/12/13 06:46:43;;;;;;;22.67;12.23;;;9.70;99.90;;;;;;5034374;28;20221;-64
2021/12/13 06:49:18;;;;;;;29.17;14.73;;;9.70;99.90;;;;;;5034191;28;20229;-64
2021/12/13 06:51:50;;;;;;;24.45;13.27;;;9.70;99.90;;;;;;5034605;28;20225;-64
2021/12/13 06:54:22;;;;;;;27.10;12.15;;;9.70;99.90;;;;;;5034142;28;20244;-64
2021/12/13 06:56:55;;;;;;;31.13;14.20;;;9.70;99.90;;;;;;5034817;28;20235;-64
2021/12/13 06:59:22;;;;;;;25.48;14.18;;;9.70;99.90;;;;;;5034079;28;20240;-64
2021/12/13 07:02:05;;;;;;;26.05;13.48;;;9.70;99.90;;;;;;5034591;28;20228;-64
2021/12/13 07:04:54;;;;;;;27.17;13.13;;;9.70;99.90;;;;;;5034255;28;20963;-63
2021/12/13 07:07:24;;;;;;;25.00;12.80;;;9.70;99.90;;;;;;5033911;28;20570;-64
2021/12/13 07:09:54;;;;;;;26.98;14.90;;;9.70;99.90;;;;;;5034395;28;20237;-64
2021/12/13 07:12:22;;;;;;;25.25;12.98;;;9.70;99.90;;;;;;5033914;28;20557;-64
2021/12/13 07:14:50;;;;;;;22.92;14.43;;;9.70;99.90;;;;;;5034375;28;20222;-64
2021/12/13 07:17:20;;;;;;;28.40;13.77;;;9.70;99.90;;;;;;5033909;28;20571;-64
2021/12/13 07:19:49;;;;;;;20.38;13.23;;;9.70;99.90;;;;;;5033898;28;20225;-63
2021/12/13 07:22:19;;;;;;;29.58;13.55;;;9.80;99.90;;;;;;5033584;28;20680;-63
2021/12/13 07:24:49;;;;;;;26.60;14.75;;;9.80;99.90;;;;;;5034179;28;20299;-63
2021/12/13 07:27:19;;;;;;;28.02;16.25;;;9.80;99.90;;;;;;5033639;28;20232;-63
2021/12/13 07:29:49;;;;;;;25.08;13.43;;;9.80;99.90;;;;;;5033844;28;20574;-63
2021/12/13 07:32:21;;;;;;;25.00;13.38;;;9.80;99.90;;;;;;5033533;28;20686;-63
2021/12/13 07:34:56;;;;;;;29.92;13.95;;;9.80;99.90;;;;;;5033875;28;20225;-63
2021/12/13 07:37:40;;;;;;;22.15;13.38;;;9.80;99.90;;;;;;5031479;28;20224;-63
2021/12/13 07:40:37;;;;;;;22.13;12.50;;;9.80;99.90;;;;;;5013993;28;20229;-63
2021/12/13 07:43:15;;;;;;;25.52;12.65;;;9.80;99.90;;;;;;4991011;28;20226;-63
2021/12/13 07:45:47;;;;;;;21.75;10.75;;;9.80;99.90;;;;;;5013667;28;20221;-63
2021/12/13 07:48:17;;;;;;;19.30;12.00;;;9.80;99.90;;;;;;5013386;28;20556;-63
2021/12/13 07:50:55;;;;;;;22.85;12.57;;;9.80;99.90;;;;;;5013388;28;20238;-63
2021/12/13 07:53:22;;;;;;;23.02;11.98;;;9.90;99.90;;;;;;5012992;28;20229;-64
2021/12/13 07:55:50;;;;;;;35.22;19.90;;;9.80;99.90;;;;;;5013492;28;20309;-63
2021/12/13 07:58:32;;;;;;;25.58;16.83;;;9.80;99.90;;;;;;5013349;28;20575;-63
2021/12/13 08:01:10;;;;;;;25.50;15.10;;;9.90;99.90;;;;;;5013112;28;20710;-63
2021/12/13 08:03:45;;;;;;;28.50;16.73;;;9.90;99.90;;;;;;5013762;28;20583;-63
2021/12/13 08:06:12;;;;;;;27.35;17.80;;;9.90;99.90;;;;;;5013174;28;20229;-63
2021/12/13 08:08:47;;;;;;;26.83;16.10;;;9.90;99.90;;;;;;5013518;28;20236;-63
2021/12/13 08:11:14;;;;;;;25.27;14.38;;;9.90;99.90;;;;;;5012939;28;20225;-63
2021/12/13 08:13:42;;;;;;;27.83;13.98;;;9.90;99.90;;;;;;5013611;28;20575;-63
2021/12/13 08:16:10;;;;;;;20.35;12.18;;;10.00;99.90;;;;;;5013094;28;20248;-63
2021/12/13 08:18:42;;;;;;;21.85;13.68;;;10.00;99.90;;;;;;5013382;28;20249;-63
2021/12/13 08:21:13;;;;;;;21.27;13.32;;;10.00;99.90;;;;;;5012907;28;20234;-64
2021/12/13 08:23:43;;;;;;;22.00;14.43;;;10.00;99.90;;;;;;5013413;28;20236;-63
2021/12/13 08:26:13;;;;;;;18.00;11.15;;;10.00;99.90;;;;;;5012740;28;20222;-64
2021/12/13 08:28:44;;;;;;;18.67;11.98;;;10.00;99.90;;;;;;5013284;28;20222;-64
2021/12/13 08:31:19;;;;;;;23.95;13.60;;;10.00;99.90;;;;;;5012832;28;20228;-63
2021/12/13 08:33:51;;;;;;;20.40;12.85;;;10.00;99.90;;;;;;5013146;28;20229;-64
2021/12/13 08:36:19;;;;;;;22.58;14.13;;;10.00;99.90;;;;;;5012694;28;20241;-63
2021/12/13 08:38:51;;;;;;;22.77;13.85;;;10.10;99.90;;;;;;5013035;28;20222;-63
2021/12/13 08:41:22;;;;;;;29.60;13.80;;;10.00;99.90;;;;;;5012752;28;20318;-64
2021/12/13 08:43:54;;;;;;;20.63;13.52;;;10.10;99.90;;;;;;5013032;28;20568;-64
2021/12/13 08:46:40;;;;;;;19.80;13.02;;;10.10;99.90;;;;;;5012361;28;20292;-64
2021/12/13 08:49:22;;;;;;;23.02;13.50;;;10.10;99.90;;;;;;5012510;28;20264;-64
2021/12/13 08:51:59;;;;;;;22.88;13.73;;;10.10;99.90;;;;;;5013039;28;20233;-64
2021/12/13 08:54:37;;;;;;;24.50;14.93;;;10.20;99.90;;;;;;5012651;28;20217;-63
2021/12/13 08:57:06;;;;;;;19.20;12.85;;;10.10;99.90;;;;;;5012459;28;20229;-63
2021/12/13 08:59:33;;;;;;;17.63;11.07;;;10.20;99.90;;;;;;5012618;28;20236;-64
2021/12/13 09:02:03;;;;;;;15.60;10.75;;;10.20;99.90;;;;;;5012718;28;20685;-64
2021/12/13 09:04:35;;;;;;;16.65;11.85;;;10.20;99.90;;;;;;5016219;28;20752;-63
2021/12/13 09:07:07;;;;;;;20.17;11.13;;;10.20;99.90;;;;;;5016801;28;20260;-64
2021/12/13 09:09:35;;;;;;;15.40;10.20;;;10.20;99.90;;;;;;5036173;28;21013;-64
2021/12/13 09:12:08;;;;;;;20.75;11.63;;;10.20;99.90;;;;;;5036170;28;20229;-64
2021/12/13 09:14:39;;;;;;;14.57;10.60;;;10.20;99.90;;;;;;5036293;28;20232;-64
2021/12/13 09:17:16;;;;;;;20.80;11.23;;;10.30;99.90;;;;;;5036436;28;20290;-64
2021/12/13 09:19:52;;;;;;;20.38;15.02;;;10.20;99.90;;;;;;5035968;28;21035;-63
2021/12/13 09:22:24;;;;;;;17.52;12.60;;;10.20;99.90;;;;;;5036105;28;20221;-64
2021/12/13 09:24:55;;;;;;;19.92;13.50;;;10.30;99.90;;;;;;5023633;28;20236;-63
2021/12/13 09:27:32;;;;;;;17.23;11.50;;;10.20;99.90;;;;;;5016215;28;20236;-64
2021/12/13 09:30:06;;;;;;;14.85;10.05;;;10.20;99.90;;;;;;5016379;28;20666;-64
2021/12/13 09:32:37;;;;;;;14.77;9.48;;;10.30;99.90;;;;;;5016166;28;20563;-63
2021/12/13 09:35:26;;;;;;;12.18;9.00;;;10.30;99.90;;;;;;5016441;28;20681;-63
2021/12/13 09:38:01;;;;;;;14.35;9.35;;;10.30;99.90;;;;;;5016280;28;20326;-63
2021/12/13 09:40:35;;;;;;;13.63;9.70;;;10.20;99.90;;;;;;5016232;28;20601;-63
2021/12/13 09:43:03;;;;;;;12.25;7.97;;;10.30;99.90;;;;;;5016018;28;20631;-63
2021/12/13 09:45:35;;;;;;;12.25;8.93;;;10.30;99.90;;;;;;5016340;28;20222;-63
2021/12/13 09:48:16;;;;;;;13.57;9.60;;;10.30;99.90;;;;;;5015952;28;20222;-63
2021/12/13 09:50:49;;;;;;;15.65;10.88;;;10.30;99.90;;;;;;5015403;28;20236;-63
2021/12/13 09:53:16;;;;;;;12.25;8.25;;;10.40;99.90;;;;;;5015932;28;20237;-63
2021/12/13 09:55:48;;;;;;;11.45;8.63;;;10.40;99.90;;;;;;5015464;28;20241;-64
2021/12/13 09:58:17;;;;;;;12.02;8.00;;;10.50;99.90;;;;;;5016097;28;20221;-64
2021/12/13 10:00:49;;;;;;;12.68;9.38;;;10.50;99.90;;;;;;5016023;28;20233;-64
2021/12/13 10:03:21;;;;;;;11.82;8.60;;;10.50;99.90;;;;;;5035709;28;20243;-64
2021/12/13 10:05:52;;;;;;;10.27;7.60;;;10.50;99.90;;;;;;5035273;28;20230;-64
2021/12/13 10:08:22;;;;;;;15.57;10.73;;;10.50;99.90;;;;;;5035458;28;20251;-63
2021/12/13 10:10:54;;;;;;;12.77;9.35;;;10.50;99.90;;;;;;5035081;28;20233;-63
2021/12/13 10:13:26;;;;;;;11.68;8.93;;;10.50;99.90;;;;;;5035322;28;20235;-63
2021/12/13 10:15:56;;;;;;;10.80;9.43;;;10.50;99.90;;;;;;5034349;28;20239;-63
2021/12/13 10:18:26;;;;;;;12.50;9.60;;;10.60;99.90;;;;;;5035216;28;20236;-63
2021/12/13 10:21:00;;;;;;;12.95;9.57;;;10.60;99.90;;;;;;5034800;28;20237;-63
2021/12/13 10:23:31;;;;;;;14.55;10.73;;;10.60;99.90;;;;;;5028958;28;20224;-64
2021/12/13 10:26:01;;;;;;;13.77;10.13;;;10.60;99.90;;;;;;5015033;28;20230;-64
2021/12/13 10:28:33;;;;;;;14.68;10.07;;;10.60;99.90;;;;;;5015301;28;20240;-64
2021/12/13 10:31:07;;;;;;;14.57;8.63;;;10.60;99.90;;;;;;5014843;28;20230;-64
2021/12/13 10:33:37;;;;;;;15.55;10.60;;;10.60;99.90;;;;;;5015287;28;20561;-64
2021/12/13 10:36:07;;;;;;;19.88;12.45;;;10.60;99.90;;;;;;5014801;28;20218;-64
2021/12/13 10:38:37;;;;;;;20.27;13.73;;;10.60;99.90;;;;;;5015018;28;20228;-64
2021/12/13 10:41:08;;;;;;;18.50;12.00;;;10.70;99.90;;;;;;5014726;28;20230;-64
2021/12/13 10:43:39;;;;;;;18.35;13.15;;;10.70;99.90;;;;;;5015188;28;20218;-63
2021/12/13 10:46:11;;;;;;;18.15;11.95;;;10.70;99.90;;;;;;5014534;28;20222;-64
2021/12/13 10:48:44;;;;;;;14.02;10.75;;;10.70;99.90;;;;;;5015013;28;20301;-64
2021/12/13 10:51:15;;;;;;;17.67;11.43;;;10.70;99.90;;;;;;5014651;28;20996;-64
2021/12/13 10:53:45;;;;;;;17.55;9.95;;;10.70;99.90;;;;;;5014943;28;20272;-63
2021/12/13 10:56:19;;;;;;;18.45;10.55;;;10.70;99.90;;;;;;5014637;28;20218;-63
2021/12/13 10:58:51;;;;;;;19.10;11.15;;;10.70;99.90;;;;;;5014632;28;20228;-63
2021/12/13 11:01:22;;;;;;;18.90;11.43;;;10.70;99.90;;;;;;5026203;28;21054;-63
2021/12/13 11:03:51;;;;;;;18.15;12.32;;;10.80;99.90;;;;;;5034439;28;20232;-63
2021/12/13 11:06:21;;;;;;;20.13;10.82;;;10.80;99.90;;;;;;5033906;28;20239;-63
2021/12/13 11:08:49;;;;;;;17.90;11.30;;;10.80;99.90;;;;;;5034250;28;20229;-64
2021/12/13 11:11:20;;;;;;;18.40;12.05;;;10.90;99.90;;;;;;5033881;28;20256;-64
2021/12/13 11:13:49;;;;;;;23.75;13.85;;;10.90;99.90;;;;;;5034215;28;20317;-64
2021/12/13 11:16:19;;;;;;;24.20;13.88;;;10.90;99.90;;;;;;5033713;28;20221;-64
2021/12/13 11:18:46;;;;;;;20.50;12.32;;;10.90;99.90;;;;;;5034267;28;20235;-64
2021/12/13 11:21:19;;;;;;;16.17;11.20;;;10.90;99.90;;;;;;5033525;28;20247;-64
2021/12/13 11:23:47;;;;;;;16.80;11.52;;;10.90;99.90;;;;;;5033961;28;20225;-64
2021/12/13 11:26:18;;;;;;;17.80;10.38;;;10.90;99.90;;;;;;5032966;28;20240;-64
2021/12/13 11:28:45;;;;;;;15.82;10.57;;;11.00;99.90;;;;;;5033860;28;20230;-64
2021/12/13 11:31:15;;;;;;;13.20;9.75;;;11.00;99.90;;;;;;5033339;28;20229;-64
2021/12/13 11:34:15;;;;;;;17.15;12.38;;;11.00;99.90;;;;;;5033960;28;20221;-64
2021/12/13 11:37:07;;;;;;;20.30;12.32;;;11.00;99.90;;;;;;5033689;28;20214;-64
2021/12/13 11:39:59;;;;;;;17.33;11.02;;;11.00;99.90;;;;;;5033751;28;20229;-64
2021/12/13 11:43:03;;;;;;;16.95;10.35;;;11.00;99.90;;;;;;5033742;28;20223;-64
2021/12/13 11:46:07;;;;;;;14.73;9.68;;;11.00;99.90;;;;;;5033208;28;20235;-64
2021/12/13 11:48:50;;;;;;;17.13;11.57;;;11.10;99.90;;;;;;5033326;28;20271;-64
2021/12/13 11:51:54;;;;;;;20.88;13.82;;;11.10;99.90;;;;;;5033479;28;20229;-64
2021/12/13 11:54:47;;;;;;;20.15;13.65;;;11.10;99.90;;;;;;5033313;28;20639;-64
2021/12/13 11:58:09;;;;;;;20.25;13.85;;;11.10;99.90;;;;;;5032859;28;20233;-64
2021/12/13 12:01:01;;;;;;;20.90;14.35;;;11.10;99.90;;;;;;5031815;28;20217;-64
2021/12/13 12:04:17;;;;;;;17.65;11.00;;;11.10;99.90;;;;;;5033325;28;20224;-64
2021/12/13 12:07:21;;;;;;;15.48;11.73;;;11.10;99.90;;;;;;5032831;28;20225;-64
2021/12/13 12:10:10;;;;;;;17.77;10.52;;;11.20;99.90;;;;;;5032922;28;20225;-64
2021/12/13 12:12:56;;;;;;;15.73;11.18;;;11.20;99.90;;;;;;5032902;28;20232;-64
2021/12/13 12:15:27;;;;;;;17.80;13.93;;;11.20;99.90;;;;;;5033169;28;20231;-64
2021/12/13 12:17:56;;;;;;;18.17;13.52;;;11.20;99.90;;;;;;5033247;28;20300;-64
2021/12/13 12:20:28;;;;;;;16.65;13.63;;;11.20;99.90;;;;;;5032962;28;20229;-63
2021/12/13 12:22:56;;;;;;;15.55;12.35;;;11.30;99.90;;;;;;5032801;28;20241;-64
2021/12/13 12:25:26;;;;;;;15.98;11.27;;;11.30;99.90;;;;;;5033103;28;20231;-64
2021/12/13 12:27:58;;;;;;;13.95;10.75;;;11.30;99.90;;;;;;5032545;28;20243;-64
2021/12/13 12:30:29;;;;;;;14.90;11.85;;;11.30;99.90;;;;;;5032863;28;20240;-64
2021/12/13 12:33:01;;;;;;;13.88;10.15;;;11.30;99.90;;;;;;5032835;28;20243;-64
2021/12/13 12:35:30;;;;;;;11.85;10.43;;;11.40;99.90;;;;;;5032788;28;20581;-64
2021/12/13 12:38:57;;;;;;;9.93;8.18;;;11.40;99.90;;;;;;5032218;28;20217;-64
2021/12/13 12:41:46;;;;;;;11.10;8.93;;;11.40;99.90;;;;;;4991309;28;20260;-64
2021/12/13 12:44:21;;;;;;;11.02;8.40;;;11.40;99.90;;;;;;5032155;28;20247;-63
2021/12/13 12:46:50;;;;;;;10.38;8.35;;;11.40;99.90;;;;;;5032713;28;20329;-64
2021/12/13 12:49:23;;;;;;;12.30;9.55;;;11.40;99.90;;;;;;5032237;28;20225;-63
2021/12/13 12:51:52;;;;;;;8.30;7.45;;;11.50;99.90;;;;;;5032576;28;20225;-63
2021/12/13 12:54:22;;;;;;;10.73;7.00;;;11.50;99.90;;;;;;5032325;28;20249;-64
2021/12/13 12:56:53;;;;;;;9.95;8.00;;;11.50;99.90;;;;;;5032484;28;20221;-63
2021/12/13 12:59:23;;;;;;;8.23;6.90;;;11.40;99.90;;;;;;5032157;28;20629;-64
2021/12/13 13:01:58;;;;;;;11.07;7.15;;;11.40;99.90;;;;;;5030142;28;20586;-63
2021/12/13 13:04:30;;;;;;;9.30;7.25;;;11.50;99.90;;;;;;5032084;28;20687;-64
2021/12/13 13:07:03;;;;;;;9.60;8.57;;;11.50;99.90;;;;;;5032109;28;20230;-64
2021/12/13 13:09:52;;;;;;;8.20;6.90;;;11.50;99.90;;;;;;5031718;28;20240;-63
2021/12/13 13:12:30;;;;;;;9.02;8.07;;;11.50;99.90;;;;;;5031971;28;20221;-63
2021/12/13 13:15:00;;;;;;;7.97;7.20;;;11.50;99.90;;;;;;5032313;28;20332;-63